sensor_id;sensor_type;location;lat;lon;timestamp;temperature;humidity
8856;DHT22;4464;50.882;4.730;2022-09-09T00:04:13;14.70;99.90
8856;DHT22;4464;50.882;4.730;2022-09-09T00:07:10;14.70;99.90
8856;DHT22;4464;50.882;4.730;2022-09-09T00:09:46;14.70;99.90
8856;DHT22;4464;50.882;4.730;2022-09-09T00:15:11;14.70;99.90
8856;DHT22;4464;50.882;4.730;2022-09-09T00:17:56;14.70;99.90
8856;DHT22;4464;50.882;4.730;2022-09-09T00:20:35;14.70;99.90
8856;DHT22;4464;50.882;4.730;2022-09-09T00:23:14;14.70;99.90
8856;DHT22;4464;50.882;4.730;2022-09-09T00:28:51;14.70;99.90
8856;DHT22;4464;50.882;4.730;2022-09-09T00:31:26;14.70;99.90
8856;DHT22;4464;50.882;4.730;2022-09-09T00:36:41;14.70;99.90
8856;DHT22;4464;50.882;4.730;2022-09-09T00:39:34;14.70;99.90
8856;DHT22;4464;50.882;4.730;2022-09-09T00:42:25;14.60;99.90
8856;DHT22;4464;50.882;4.730;2022-09-09T00:44:59;14.60;99.90
8856;DHT22;4464;50.882;4.730;2022-09-09T00:47:45;14.60;99.90
8856;DHT22;4464;50.882;4.730;2022-09-09T00:55:21;14.60;99.90
8856;DHT22;4464;50.882;4.730;2022-09-09T00:57:54;14.70;99.90
8856;DHT22;4464;50.882;4.730;2022-09-09T01:06:20;14.80;99.90
8856;DHT22;4464;50.882;4.730;2022-09-09T01:12:35;14.70;99.90
8856;DHT22;4464;50.882;4.730;2022-09-09T01:14:49;14.60;99.90
8856;DHT22;4464;50.882;4.730;2022-09-09T01:17:21;14.70;99.90
8856;DHT22;4464;50.882;4.730;2022-09-09T01:28:11;14.70;99.90
8856;DHT22;4464;50.882;4.730;2022-09-09T01:30:40;14.60;99.90
8856;DHT22;4464;50.882;4.730;2022-09-09T01:33:12;14.70;99.90
8856;DHT22;4464;50.882;4.730;2022-09-09T01:35:59;14.70;99.90
8856;DHT22;4464;50.882;4.730;2022-09-09T01:38:26;14.70;99.90
8856;DHT22;4464;50.882;4.730;2022-09-09T01:40:53;14.80;99.90
8856;DHT22;4464;50.882;4.730;2022-09-09T01:43:22;14.90;99.90
8856;DHT22;4464;50.882;4.730;2022-09-09T01:45:54;14.90;99.90
8856;DHT22;4464;50.882;4.730;2022-09-09T01:48:22;14.90;99.90
8856;DHT22;4464;50.882;4.730;2022-09-09T01:50:49;14.90;99.90
8856;DHT22;4464;50.882;4.730;2022-09-09T01:53:20;14.90;99.90
8856;DHT22;4464;50.882;4.730;2022-09-09T02:01:36;14.90;99.90
8856;DHT22;4464;50.882;4.730;2022-09-09T02:10:52;15.00;99.90
8856;DHT22;4464;50.882;4.730;2022-09-09T02:13:23;15.00;99.90
8856;DHT22;4464;50.882;4.730;2022-09-09T02:15:56;15.00;99.90
8856;DHT22;4464;50.882;4.730;2022-09-09T02:21:05;15.00;99.90
8856;DHT22;4464;50.882;4.730;2022-09-09T02:23:33;15.00;99.90
8856;DHT22;4464;50.882;4.730;2022-09-09T02:26:00;15.00;99.90
8856;DHT22;4464;50.882;4.730;2022-09-09T02:28:32;14.90;99.90
8856;DHT22;4464;50.882;4.730;2022-09-09T02:30:58;14.90;99.90
8856;DHT22;4464;50.882;4.730;2022-09-09T02:33:30;14.90;99.90
8856;DHT22;4464;50.882;4.730;2022-09-09T02:36:01;14.90;99.90
8856;DHT22;4464;50.882;4.730;2022-09-09T02:38:33;15.00;99.90
8856;DHT22;4464;50.882;4.730;2022-09-09T02:41:00;14.90;99.90
8856;DHT22;4464;50.882;4.730;2022-09-09T02:43:34;15.00;99.90
8856;DHT22;4464;50.882;4.730;2022-09-09T02:46:42;15.00;99.90
8856;DHT22;4464;50.882;4.730;2022-09-09T02:49:27;14.90;99.90
8856;DHT22;4464;50.882;4.730;2022-09-09T02:52:01;14.90;99.90
8856;DHT22;4464;50.882;4.730;2022-09-09T02:54:33;14.90;99.90
8856;DHT22;4464;50.882;4.730;2022-09-09T02:57:22;14.90;99.90
8856;DHT22;4464;50.882;4.730;2022-09-09T02:59:50;14.90;99.90
8856;DHT22;4464;50.882;4.730;2022-09-09T03:02:19;14.90;99.90
8856;DHT22;4464;50.882;4.730;2022-09-09T03:04:45;14.90;99.90
8856;DHT22;4464;50.882;4.730;2022-09-09T03:07:16;14.90;99.90
8856;DHT22;4464;50.882;4.730;2022-09-09T03:09:42;14.90;99.90
8856;DHT22;4464;50.882;4.730;2022-09-09T03:12:08;14.90;99.90
8856;DHT22;4464;50.882;4.730;2022-09-09T03:14:35;14.90;99.90
8856;DHT22;4464;50.882;4.730;2022-09-09T03:17:04;14.90;99.90
8856;DHT22;4464;50.882;4.730;2022-09-09T03:19:32;14.90;99.90
8856;DHT22;4464;50.882;4.730;2022-09-09T03:22:03;14.90;99.90
8856;DHT22;4464;50.882;4.730;2022-09-09T03:24:29;14.90;99.90
8856;DHT22;4464;50.882;4.730;2022-09-09T03:26:55;14.90;99.90
8856;DHT22;4464;50.882;4.730;2022-09-09T03:29:21;14.90;99.90
8856;DHT22;4464;50.882;4.730;2022-09-09T03:31:47;14.90;99.90
8856;DHT22;4464;50.882;4.730;2022-09-09T03:34:13;14.90;99.90
8856;DHT22;4464;50.882;4.730;2022-09-09T03:36:39;14.90;99.90
8856;DHT22;4464;50.882;4.730;2022-09-09T03:39:06;14.90;99.90
8856;DHT22;4464;50.882;4.730;2022-09-09T03:41:32;14.90;99.90
8856;DHT22;4464;50.882;4.730;2022-09-09T03:44:01;14.90;99.90
8856;DHT22;4464;50.882;4.730;2022-09-09T03:46:27;14.90;99.90
8856;DHT22;4464;50.882;4.730;2022-09-09T03:48:53;14.90;99.90
8856;DHT22;4464;50.882;4.730;2022-09-09T03:51:20;14.90;99.90
8856;DHT22;4464;50.882;4.730;2022-09-09T03:53:49;14.90;99.90
8856;DHT22;4464;50.882;4.730;2022-09-09T03:56:17;15.00;99.90
8856;DHT22;4464;50.882;4.730;2022-09-09T03:58:43;15.00;99.90
8856;DHT22;4464;50.882;4.730;2022-09-09T04:01:14;15.00;99.90
8856;DHT22;4464;50.882;4.730;2022-09-09T04:03:43;14.90;99.90
8856;DHT22;4464;50.882;4.730;2022-09-09T04:06:13;15.00;99.90
8856;DHT22;4464;50.882;4.730;2022-09-09T04:08:40;14.90;99.90
8856;DHT22;4464;50.882;4.730;2022-09-09T04:11:07;14.80;99.90
8856;DHT22;4464;50.882;4.730;2022-09-09T04:13:35;14.90;99.90
8856;DHT22;4464;50.882;4.730;2022-09-09T04:16:02;14.80;99.90
8856;DHT22;4464;50.882;4.730;2022-09-09T04:18:29;14.80;99.90
8856;DHT22;4464;50.882;4.730;2022-09-09T04:20:55;14.80;99.90
8856;DHT22;4464;50.882;4.730;2022-09-09T04:23:26;14.80;99.90
8856;DHT22;4464;50.882;4.730;2022-09-09T04:25:55;14.80;99.90
8856;DHT22;4464;50.882;4.730;2022-09-09T04:28:26;14.80;99.90
8856;DHT22;4464;50.882;4.730;2022-09-09T04:30:52;14.90;99.90
8856;DHT22;4464;50.882;4.730;2022-09-09T04:33:21;15.00;99.90
8856;DHT22;4464;50.882;4.730;2022-09-09T04:35:49;14.90;99.90
8856;DHT22;4464;50.882;4.730;2022-09-09T04:38:16;15.00;99.90
8856;DHT22;4464;50.882;4.730;2022-09-09T04:40:46;15.10;99.90
8856;DHT22;4464;50.882;4.730;2022-09-09T04:43:12;15.10;99.90
8856;DHT22;4464;50.882;4.730;2022-09-09T04:45:38;15.10;99.90
8856;DHT22;4464;50.882;4.730;2022-09-09T04:48:06;15.10;99.90
8856;DHT22;4464;50.882;4.730;2022-09-09T04:50:37;15.10;99.90
8856;DHT22;4464;50.882;4.730;2022-09-09T04:53:04;15.00;99.90
8856;DHT22;4464;50.882;4.730;2022-09-09T04:55:30;15.00;99.90
8856;DHT22;4464;50.882;4.730;2022-09-09T04:58:02;15.00;99.90
8856;DHT22;4464;50.882;4.730;2022-09-09T05:00:28;14.90;99.90
8856;DHT22;4464;50.882;4.730;2022-09-09T05:02:56;14.90;99.90
8856;DHT22;4464;50.882;4.730;2022-09-09T05:05:25;14.90;99.90
8856;DHT22;4464;50.882;4.730;2022-09-09T05:07:51;14.90;99.90
8856;DHT22;4464;50.882;4.730;2022-09-09T05:10:16;14.90;99.90
8856;DHT22;4464;50.882;4.730;2022-09-09T05:12:54;14.90;99.90
8856;DHT22;4464;50.882;4.730;2022-09-09T05:15:20;14.90;99.90
8856;DHT22;4464;50.882;4.730;2022-09-09T05:17:46;14.90;99.90
8856;DHT22;4464;50.882;4.730;2022-09-09T05:20:12;14.90;99.90
8856;DHT22;4464;50.882;4.730;2022-09-09T05:22:38;14.90;99.90
8856;DHT22;4464;50.882;4.730;2022-09-09T05:25:06;14.90;99.90
8856;DHT22;4464;50.882;4.730;2022-09-09T05:27:36;14.90;99.90
8856;DHT22;4464;50.882;4.730;2022-09-09T05:30:03;14.90;99.90
8856;DHT22;4464;50.882;4.730;2022-09-09T05:32:32;15.00;99.90
8856;DHT22;4464;50.882;4.730;2022-09-09T05:34:59;15.10;99.90
8856;DHT22;4464;50.882;4.730;2022-09-09T05:37:25;15.20;99.90
8856;DHT22;4464;50.882;4.730;2022-09-09T05:39:56;15.30;99.90
8856;DHT22;4464;50.882;4.730;2022-09-09T05:42:23;15.30;99.90
8856;DHT22;4464;50.882;4.730;2022-09-09T05:44:49;15.30;99.90
8856;DHT22;4464;50.882;4.730;2022-09-09T05:47:16;15.30;99.90
8856;DHT22;4464;50.882;4.730;2022-09-09T05:49:44;15.30;99.90
8856;DHT22;4464;50.882;4.730;2022-09-09T05:52:10;15.40;99.90
8856;DHT22;4464;50.882;4.730;2022-09-09T05:54:39;15.40;99.90
8856;DHT22;4464;50.882;4.730;2022-09-09T05:57:05;15.50;99.90
8856;DHT22;4464;50.882;4.730;2022-09-09T05:59:31;15.60;99.90
8856;DHT22;4464;50.882;4.730;2022-09-09T06:01:57;15.70;99.90
8856;DHT22;4464;50.882;4.730;2022-09-09T06:04:23;15.80;99.90
8856;DHT22;4464;50.882;4.730;2022-09-09T06:06:51;15.80;99.90
8856;DHT22;4464;50.882;4.730;2022-09-09T06:09:17;16.00;99.90
8856;DHT22;4464;50.882;4.730;2022-09-09T06:11:44;16.00;99.90
8856;DHT22;4464;50.882;4.730;2022-09-09T06:14:12;16.00;99.90
8856;DHT22;4464;50.882;4.730;2022-09-09T06:16:38;16.00;99.90
8856;DHT22;4464;50.882;4.730;2022-09-09T06:19:07;16.10;99.90
8856;DHT22;4464;50.882;4.730;2022-09-09T06:21:35;16.00;99.90
8856;DHT22;4464;50.882;4.730;2022-09-09T06:24:04;16.00;99.90
8856;DHT22;4464;50.882;4.730;2022-09-09T06:26:38;16.00;99.90
8856;DHT22;4464;50.882;4.730;2022-09-09T06:29:07;16.10;99.90
8856;DHT22;4464;50.882;4.730;2022-09-09T06:31:36;16.10;99.90
8856;DHT22;4464;50.882;4.730;2022-09-09T06:34:05;16.10;99.90
8856;DHT22;4464;50.882;4.730;2022-09-09T06:36:32;16.20;99.90
8856;DHT22;4464;50.882;4.730;2022-09-09T06:39:03;16.30;99.90
8856;DHT22;4464;50.882;4.730;2022-09-09T06:41:30;16.40;99.90
8856;DHT22;4464;50.882;4.730;2022-09-09T06:43:57;16.60;99.90
8856;DHT22;4464;50.882;4.730;2022-09-09T06:46:26;16.50;99.90
8856;DHT22;4464;50.882;4.730;2022-09-09T06:48:53;16.50;99.90
8856;DHT22;4464;50.882;4.730;2022-09-09T06:51:33;16.70;99.90
8856;DHT22;4464;50.882;4.730;2022-09-09T06:54:00;16.80;99.90
8856;DHT22;4464;50.882;4.730;2022-09-09T06:56:36;16.90;99.90
8856;DHT22;4464;50.882;4.730;2022-09-09T06:59:07;16.80;99.90
8856;DHT22;4464;50.882;4.730;2022-09-09T07:01:39;16.80;99.90
8856;DHT22;4464;50.882;4.730;2022-09-09T07:04:09;16.80;99.90
8856;DHT22;4464;50.882;4.730;2022-09-09T07:06:38;16.90;99.90
8856;DHT22;4464;50.882;4.730;2022-09-09T07:09:06;16.90;99.90
8856;DHT22;4464;50.882;4.730;2022-09-09T07:11:39;16.80;99.90
8856;DHT22;4464;50.882;4.730;2022-09-09T07:14:05;16.80;99.90
8856;DHT22;4464;50.882;4.730;2022-09-09T07:16:30;16.80;99.90
8856;DHT22;4464;50.882;4.730;2022-09-09T07:18:58;16.80;99.90
8856;DHT22;4464;50.882;4.730;2022-09-09T07:21:27;16.80;99.90
8856;DHT22;4464;50.882;4.730;2022-09-09T07:23:53;16.80;99.90
8856;DHT22;4464;50.882;4.730;2022-09-09T07:26:21;16.80;99.90
8856;DHT22;4464;50.882;4.730;2022-09-09T07:28:49;16.90;99.90
8856;DHT22;4464;50.882;4.730;2022-09-09T07:31:19;16.90;99.90
8856;DHT22;4464;50.882;4.730;2022-09-09T07:33:50;16.90;99.90
8856;DHT22;4464;50.882;4.730;2022-09-09T07:36:25;17.10;99.90
8856;DHT22;4464;50.882;4.730;2022-09-09T07:38:56;17.10;99.90
8856;DHT22;4464;50.882;4.730;2022-09-09T07:41:25;17.10;99.90
8856;DHT22;4464;50.882;4.730;2022-09-09T07:43:53;17.00;99.90
8856;DHT22;4464;50.882;4.730;2022-09-09T07:46:24;17.00;99.90
8856;DHT22;4464;50.882;4.730;2022-09-09T07:48:53;17.10;99.90
8856;DHT22;4464;50.882;4.730;2022-09-09T07:51:28;17.10;99.90
8856;DHT22;4464;50.882;4.730;2022-09-09T07:53:57;17.10;99.90
8856;DHT22;4464;50.882;4.730;2022-09-09T07:56:26;17.10;99.90
8856;DHT22;4464;50.882;4.730;2022-09-09T07:58:54;16.90;99.90
8856;DHT22;4464;50.882;4.730;2022-09-09T08:01:29;17.00;99.90
8856;DHT22;4464;50.882;4.730;2022-09-09T08:03:57;17.20;99.90
8856;DHT22;4464;50.882;4.730;2022-09-09T08:06:31;17.40;99.90
8856;DHT22;4464;50.882;4.730;2022-09-09T08:08:58;17.40;99.90
8856;DHT22;4464;50.882;4.730;2022-09-09T08:11:26;17.40;99.90
8856;DHT22;4464;50.882;4.730;2022-09-09T08:13:55;17.50;99.90
8856;DHT22;4464;50.882;4.730;2022-09-09T08:16:43;17.60;99.90
8856;DHT22;4464;50.882;4.730;2022-09-09T08:19:09;17.80;99.90
8856;DHT22;4464;50.882;4.730;2022-09-09T08:21:37;17.90;99.90
8856;DHT22;4464;50.882;4.730;2022-09-09T08:24:07;17.80;99.90
8856;DHT22;4464;50.882;4.730;2022-09-09T08:26:44;17.80;99.90
8856;DHT22;4464;50.882;4.730;2022-09-09T08:29:13;18.00;99.90
8856;DHT22;4464;50.882;4.730;2022-09-09T08:31:42;18.30;99.90
8856;DHT22;4464;50.882;4.730;2022-09-09T08:34:09;18.50;99.90
8856;DHT22;4464;50.882;4.730;2022-09-09T08:36:41;18.60;99.90
8856;DHT22;4464;50.882;4.730;2022-09-09T08:39:15;18.70;99.90
8856;DHT22;4464;50.882;4.730;2022-09-09T08:44:57;18.40;99.90
8856;DHT22;4464;50.882;4.730;2022-09-09T08:50:25;18.20;99.90
8856;DHT22;4464;50.882;4.730;2022-09-09T08:52:54;18.00;99.90
8856;DHT22;4464;50.882;4.730;2022-09-09T08:57:57;17.90;99.90
8856;DHT22;4464;50.882;4.730;2022-09-09T09:00:39;17.70;99.90
8856;DHT22;4464;50.882;4.730;2022-09-09T09:09:29;16.70;99.90
8856;DHT22;4464;50.882;4.730;2022-09-09T09:11:58;16.50;99.90
8856;DHT22;4464;50.882;4.730;2022-09-09T09:14:29;16.40;99.90
8856;DHT22;4464;50.882;4.730;2022-09-09T09:17:06;16.40;99.90
8856;DHT22;4464;50.882;4.730;2022-09-09T09:19:38;16.40;99.90
8856;DHT22;4464;50.882;4.730;2022-09-09T09:22:22;16.40;99.90
8856;DHT22;4464;50.882;4.730;2022-09-09T09:30:31;16.20;99.90
8856;DHT22;4464;50.882;4.730;2022-09-09T09:35:39;16.30;99.90
8856;DHT22;4464;50.882;4.730;2022-09-09T09:38:23;16.20;99.90
8856;DHT22;4464;50.882;4.730;2022-09-09T09:40:54;16.20;99.90
8856;DHT22;4464;50.882;4.730;2022-09-09T09:43:28;16.20;99.90
8856;DHT22;4464;50.882;4.730;2022-09-09T09:45:55;16.20;99.90
8856;DHT22;4464;50.882;4.730;2022-09-09T09:48:23;16.20;99.90
8856;DHT22;4464;50.882;4.730;2022-09-09T09:50:52;16.20;99.90
8856;DHT22;4464;50.882;4.730;2022-09-09T09:53:29;16.10;99.90
8856;DHT22;4464;50.882;4.730;2022-09-09T09:56:05;16.20;99.90
8856;DHT22;4464;50.882;4.730;2022-09-09T10:01:28;16.20;99.90
8856;DHT22;4464;50.882;4.730;2022-09-09T10:04:00;16.20;99.90
8856;DHT22;4464;50.882;4.730;2022-09-09T10:06:35;16.30;99.90
8856;DHT22;4464;50.882;4.730;2022-09-09T10:09:27;16.20;99.90
8856;DHT22;4464;50.882;4.730;2022-09-09T10:15:14;16.30;99.90
8856;DHT22;4464;50.882;4.730;2022-09-09T10:35:04;16.20;99.90
8856;DHT22;4464;50.882;4.730;2022-09-09T10:40:39;16.30;99.90
8856;DHT22;4464;50.882;4.730;2022-09-09T10:49:03;16.30;99.90
8856;DHT22;4464;50.882;4.730;2022-09-09T10:52:13;16.30;99.90
8856;DHT22;4464;50.882;4.730;2022-09-09T10:54:58;16.40;99.90
8856;DHT22;4464;50.882;4.730;2022-09-09T10:57:33;16.30;99.90
8856;DHT22;4464;50.882;4.730;2022-09-09T11:00:06;16.30;99.90
8856;DHT22;4464;50.882;4.730;2022-09-09T11:02:36;16.40;99.90
8856;DHT22;4464;50.882;4.730;2022-09-09T11:05:05;16.40;99.90
8856;DHT22;4464;50.882;4.730;2022-09-09T11:07:39;16.60;99.90
8856;DHT22;4464;50.882;4.730;2022-09-09T11:10:23;16.70;99.90
8856;DHT22;4464;50.882;4.730;2022-09-09T11:12:52;16.80;99.90
8856;DHT22;4464;50.882;4.730;2022-09-09T11:15:26;17.00;99.90
8856;DHT22;4464;50.882;4.730;2022-09-09T11:17:56;17.10;99.90
8856;DHT22;4464;50.882;4.730;2022-09-09T11:20:25;17.30;99.90
8856;DHT22;4464;50.882;4.730;2022-09-09T11:23:40;17.50;99.90
8856;DHT22;4464;50.882;4.730;2022-09-09T11:26:12;17.70;99.90
8856;DHT22;4464;50.882;4.730;2022-09-09T11:28:58;17.90;99.90
8856;DHT22;4464;50.882;4.730;2022-09-09T11:31:45;18.10;99.90
8856;DHT22;4464;50.882;4.730;2022-09-09T11:40:18;18.50;99.90
8856;DHT22;4464;50.882;4.730;2022-09-09T11:42:46;19.80;99.90
8856;DHT22;4464;50.882;4.730;2022-09-09T11:45:24;20.80;99.90
8856;DHT22;4464;50.882;4.730;2022-09-09T11:47:52;21.10;99.90
8856;DHT22;4464;50.882;4.730;2022-09-09T11:52:48;21.00;99.90
8856;DHT22;4464;50.882;4.730;2022-09-09T11:55:28;21.10;99.90
8856;DHT22;4464;50.882;4.730;2022-09-09T11:58:16;21.20;99.90
8856;DHT22;4464;50.882;4.730;2022-09-09T12:00:48;21.30;99.90
8856;DHT22;4464;50.882;4.730;2022-09-09T12:08:56;20.60;99.90
8856;DHT22;4464;50.882;4.730;2022-09-09T12:11:27;20.40;99.90
8856;DHT22;4464;50.882;4.730;2022-09-09T12:14:00;20.30;99.90
8856;DHT22;4464;50.882;4.730;2022-09-09T12:16:36;20.40;99.90
8856;DHT22;4464;50.882;4.730;2022-09-09T12:19:19;20.40;99.90
8856;DHT22;4464;50.882;4.730;2022-09-09T12:22:32;20.60;99.90
8856;DHT22;4464;50.882;4.730;2022-09-09T12:25:23;20.20;99.90
8856;DHT22;4464;50.882;4.730;2022-09-09T12:30:37;19.60;99.90
8856;DHT22;4464;50.882;4.730;2022-09-09T12:33:13;19.70;99.90
8856;DHT22;4464;50.882;4.730;2022-09-09T12:35:40;20.00;99.90
8856;DHT22;4464;50.882;4.730;2022-09-09T12:38:27;20.20;99.90
8856;DHT22;4464;50.882;4.730;2022-09-09T12:40:59;20.10;99.90
8856;DHT22;4464;50.882;4.730;2022-09-09T12:43:27;20.10;99.90
8856;DHT22;4464;50.882;4.730;2022-09-09T12:46:02;19.90;99.90
8856;DHT22;4464;50.882;4.730;2022-09-09T12:48:41;20.20;99.90
8856;DHT22;4464;50.882;4.730;2022-09-09T12:51:21;20.40;99.90
8856;DHT22;4464;50.882;4.730;2022-09-09T12:53:51;20.20;99.90
8856;DHT22;4464;50.882;4.730;2022-09-09T12:56:31;20.20;99.90
8856;DHT22;4464;50.882;4.730;2022-09-09T12:59:00;20.10;99.90
8856;DHT22;4464;50.882;4.730;2022-09-09T13:01:31;19.80;99.90
8856;DHT22;4464;50.882;4.730;2022-09-09T13:03:57;19.80;99.90
8856;DHT22;4464;50.882;4.730;2022-09-09T13:06:29;19.90;99.90
8856;DHT22;4464;50.882;4.730;2022-09-09T13:08:57;20.30;99.90
8856;DHT22;4464;50.882;4.730;2022-09-09T13:14:16;22.20;99.90
8856;DHT22;4464;50.882;4.730;2022-09-09T13:16:57;22.60;99.90
8856;DHT22;4464;50.882;4.730;2022-09-09T13:19:29;22.10;99.90
8856;DHT22;4464;50.882;4.730;2022-09-09T13:21:59;21.80;99.90
8856;DHT22;4464;50.882;4.730;2022-09-09T13:26:58;22.30;99.90
8856;DHT22;4464;50.882;4.730;2022-09-09T13:29:30;23.00;99.90
8856;DHT22;4464;50.882;4.730;2022-09-09T13:32:16;22.70;99.90
8856;DHT22;4464;50.882;4.730;2022-09-09T13:34:54;22.70;99.90
8856;DHT22;4464;50.882;4.730;2022-09-09T13:37:38;23.30;99.90
8856;DHT22;4464;50.882;4.730;2022-09-09T13:40:12;23.70;99.90
8856;DHT22;4464;50.882;4.730;2022-09-09T13:42:44;22.90;99.90
8856;DHT22;4464;50.882;4.730;2022-09-09T13:45:21;22.50;99.90
8856;DHT22;4464;50.882;4.730;2022-09-09T13:47:48;22.40;99.90
8856;DHT22;4464;50.882;4.730;2022-09-09T13:50:29;22.30;99.90
8856;DHT22;4464;50.882;4.730;2022-09-09T13:53:01;21.90;99.90
8856;DHT22;4464;50.882;4.730;2022-09-09T13:55:28;22.30;99.90
8856;DHT22;4464;50.882;4.730;2022-09-09T13:57:59;22.20;99.90
8856;DHT22;4464;50.882;4.730;2022-09-09T14:00:27;21.70;99.90
8856;DHT22;4464;50.882;4.730;2022-09-09T14:02:57;21.40;99.90
8856;DHT22;4464;50.882;4.730;2022-09-09T14:05:27;21.50;99.90
8856;DHT22;4464;50.882;4.730;2022-09-09T14:07:57;21.20;99.90
8856;DHT22;4464;50.882;4.730;2022-09-09T14:10:23;21.00;99.90
8856;DHT22;4464;50.882;4.730;2022-09-09T14:12:51;21.20;99.90
8856;DHT22;4464;50.882;4.730;2022-09-09T14:15:18;21.60;99.90
8856;DHT22;4464;50.882;4.730;2022-09-09T14:17:44;22.50;99.90
8856;DHT22;4464;50.882;4.730;2022-09-09T14:20:10;22.60;99.90
8856;DHT22;4464;50.882;4.730;2022-09-09T14:22:42;22.70;99.90
8856;DHT22;4464;50.882;4.730;2022-09-09T14:25:09;22.20;99.90
8856;DHT22;4464;50.882;4.730;2022-09-09T14:27:37;21.80;99.90
8856;DHT22;4464;50.882;4.730;2022-09-09T14:30:05;21.50;99.90
8856;DHT22;4464;50.882;4.730;2022-09-09T14:32:34;21.20;99.90
8856;DHT22;4464;50.882;4.730;2022-09-09T14:35:00;21.10;99.90
8856;DHT22;4464;50.882;4.730;2022-09-09T14:37:27;21.30;99.90
8856;DHT22;4464;50.882;4.730;2022-09-09T14:39:55;21.70;99.90
8856;DHT22;4464;50.882;4.730;2022-09-09T14:42:21;21.90;99.90
8856;DHT22;4464;50.882;4.730;2022-09-09T14:44:49;22.60;99.90
8856;DHT22;4464;50.882;4.730;2022-09-09T14:47:15;22.30;99.90
8856;DHT22;4464;50.882;4.730;2022-09-09T14:49:43;21.80;99.90
8856;DHT22;4464;50.882;4.730;2022-09-09T14:52:12;21.70;99.90
8856;DHT22;4464;50.882;4.730;2022-09-09T14:54:38;21.20;99.90
8856;DHT22;4464;50.882;4.730;2022-09-09T14:57:04;20.90;99.90
8856;DHT22;4464;50.882;4.730;2022-09-09T14:59:30;21.00;99.90
8856;DHT22;4464;50.882;4.730;2022-09-09T15:01:56;21.10;99.90
8856;DHT22;4464;50.882;4.730;2022-09-09T15:04:22;21.40;99.90
8856;DHT22;4464;50.882;4.730;2022-09-09T15:06:48;22.30;99.90
8856;DHT22;4464;50.882;4.730;2022-09-09T15:09:15;22.50;99.90
8856;DHT22;4464;50.882;4.730;2022-09-09T15:11:41;22.40;99.90
8856;DHT22;4464;50.882;4.730;2022-09-09T15:14:08;22.40;99.90
8856;DHT22;4464;50.882;4.730;2022-09-09T15:16:34;22.70;99.90
8856;DHT22;4464;50.882;4.730;2022-09-09T15:19:02;23.30;99.90
8856;DHT22;4464;50.882;4.730;2022-09-09T15:21:30;23.80;99.90
8856;DHT22;4464;50.882;4.730;2022-09-09T15:23:59;24.00;99.90
8856;DHT22;4464;50.882;4.730;2022-09-09T15:26:26;24.30;99.90
8856;DHT22;4464;50.882;4.730;2022-09-09T15:28:52;24.70;99.90
8856;DHT22;4464;50.882;4.730;2022-09-09T15:31:24;24.30;99.90
8856;DHT22;4464;50.882;4.730;2022-09-09T15:33:52;24.50;99.90
8856;DHT22;4464;50.882;4.730;2022-09-09T15:36:24;24.10;99.90
8856;DHT22;4464;50.882;4.730;2022-09-09T15:38:51;23.80;99.90
8856;DHT22;4464;50.882;4.730;2022-09-09T15:41:21;23.50;99.90
8856;DHT22;4464;50.882;4.730;2022-09-09T15:43:49;23.20;99.90
8856;DHT22;4464;50.882;4.730;2022-09-09T15:48:46;24.60;99.90
8856;DHT22;4464;50.882;4.730;2022-09-09T15:51:14;25.10;99.90
8856;DHT22;4464;50.882;4.730;2022-09-09T15:53:40;25.60;99.90
8856;DHT22;4464;50.882;4.730;2022-09-09T15:56:06;25.20;99.90
8856;DHT22;4464;50.882;4.730;2022-09-09T15:58:33;24.40;99.90
8856;DHT22;4464;50.882;4.730;2022-09-09T16:01:03;23.60;99.90
8856;DHT22;4464;50.882;4.730;2022-09-09T16:03:36;22.70;99.90
8856;DHT22;4464;50.882;4.730;2022-09-09T16:06:04;22.10;99.90
8856;DHT22;4464;50.882;4.730;2022-09-09T16:08:37;21.80;99.90
8856;DHT22;4464;50.882;4.730;2022-09-09T16:11:12;22.10;99.90
8856;DHT22;4464;50.882;4.730;2022-09-09T16:13:41;21.90;99.90
8856;DHT22;4464;50.882;4.730;2022-09-09T16:16:11;21.80;99.90
8856;DHT22;4464;50.882;4.730;2022-09-09T16:18:44;21.90;99.90
8856;DHT22;4464;50.882;4.730;2022-09-09T16:21:25;22.00;99.90
8856;DHT22;4464;50.882;4.730;2022-09-09T16:23:53;21.60;99.90
8856;DHT22;4464;50.882;4.730;2022-09-09T16:26:21;21.20;99.90
8856;DHT22;4464;50.882;4.730;2022-09-09T16:28:51;20.80;99.90
8856;DHT22;4464;50.882;4.730;2022-09-09T16:31:21;20.70;99.90
8856;DHT22;4464;50.882;4.730;2022-09-09T16:33:47;20.40;99.90
8856;DHT22;4464;50.882;4.730;2022-09-09T16:36:16;20.20;99.90
8856;DHT22;4464;50.882;4.730;2022-09-09T16:38:44;20.00;99.90
8856;DHT22;4464;50.882;4.730;2022-09-09T16:41:14;20.00;99.90
8856;DHT22;4464;50.882;4.730;2022-09-09T16:43:40;20.00;99.90
8856;DHT22;4464;50.882;4.730;2022-09-09T16:46:22;20.00;99.90
8856;DHT22;4464;50.882;4.730;2022-09-09T16:48:49;19.90;99.90
8856;DHT22;4464;50.882;4.730;2022-09-09T16:51:24;19.80;99.90
8856;DHT22;4464;50.882;4.730;2022-09-09T16:53:52;19.70;99.90
8856;DHT22;4464;50.882;4.730;2022-09-09T16:56:26;19.70;99.90
8856;DHT22;4464;50.882;4.730;2022-09-09T16:58:57;19.60;99.90
8856;DHT22;4464;50.882;4.730;2022-09-09T17:01:26;19.20;99.90
8856;DHT22;4464;50.882;4.730;2022-09-09T17:03:53;18.60;99.90
8856;DHT22;4464;50.882;4.730;2022-09-09T17:06:19;18.20;99.90
8856;DHT22;4464;50.882;4.730;2022-09-09T17:08:45;17.90;99.90
8856;DHT22;4464;50.882;4.730;2022-09-09T17:11:16;17.70;99.90
8856;DHT22;4464;50.882;4.730;2022-09-09T17:13:44;17.60;99.90
8856;DHT22;4464;50.882;4.730;2022-09-09T17:16:11;17.60;99.90
8856;DHT22;4464;50.882;4.730;2022-09-09T17:18:38;17.60;99.90
8856;DHT22;4464;50.882;4.730;2022-09-09T17:21:12;17.50;99.90
8856;DHT22;4464;50.882;4.730;2022-09-09T17:23:38;17.40;99.90
8856;DHT22;4464;50.882;4.730;2022-09-09T17:26:08;17.40;99.90
8856;DHT22;4464;50.882;4.730;2022-09-09T17:28:39;17.40;99.90
8856;DHT22;4464;50.882;4.730;2022-09-09T17:31:11;17.30;99.90
8856;DHT22;4464;50.882;4.730;2022-09-09T17:33:39;17.20;99.90
8856;DHT22;4464;50.882;4.730;2022-09-09T17:36:15;17.20;99.90
8856;DHT22;4464;50.882;4.730;2022-09-09T17:38:42;17.10;99.90
8856;DHT22;4464;50.882;4.730;2022-09-09T17:41:14;17.10;99.90
8856;DHT22;4464;50.882;4.730;2022-09-09T17:43:41;17.10;99.90
8856;DHT22;4464;50.882;4.730;2022-09-09T17:46:15;17.10;99.90
8856;DHT22;4464;50.882;4.730;2022-09-09T17:48:43;17.10;99.90
8856;DHT22;4464;50.882;4.730;2022-09-09T17:51:14;17.10;99.90
8856;DHT22;4464;50.882;4.730;2022-09-09T17:53:51;17.10;99.90
8856;DHT22;4464;50.882;4.730;2022-09-09T17:56:20;17.10;99.90
8856;DHT22;4464;50.882;4.730;2022-09-09T17:58:47;17.00;99.90
8856;DHT22;4464;50.882;4.730;2022-09-09T18:01:19;17.00;99.90
8856;DHT22;4464;50.882;4.730;2022-09-09T18:03:50;16.90;99.90
8856;DHT22;4464;50.882;4.730;2022-09-09T18:06:19;16.90;99.90
8856;DHT22;4464;50.882;4.730;2022-09-09T18:08:56;16.80;99.90
8856;DHT22;4464;50.882;4.730;2022-09-09T18:11:28;16.80;99.90
8856;DHT22;4464;50.882;4.730;2022-09-09T18:13:56;16.80;99.90
8856;DHT22;4464;50.882;4.730;2022-09-09T18:16:30;16.80;99.90
8856;DHT22;4464;50.882;4.730;2022-09-09T18:18:57;16.70;99.90
8856;DHT22;4464;50.882;4.730;2022-09-09T18:21:29;16.70;99.90
8856;DHT22;4464;50.882;4.730;2022-09-09T18:23:59;16.60;99.90
8856;DHT22;4464;50.882;4.730;2022-09-09T18:26:26;16.60;99.90
8856;DHT22;4464;50.882;4.730;2022-09-09T18:29:02;16.50;99.90
8856;DHT22;4464;50.882;4.730;2022-09-09T18:31:31;16.50;99.90
8856;DHT22;4464;50.882;4.730;2022-09-09T18:33:59;16.50;99.90
8856;DHT22;4464;50.882;4.730;2022-09-09T18:36:33;16.50;99.90